createdAt,value
2023-06-04T00:02:25.458Z,15.70
2023-06-04T00:04:52.742Z,15.70
2023-06-04T00:07:19.715Z,15.60
2023-06-04T00:09:47.891Z,15.50
2023-06-04T00:12:15.428Z,15.50
2023-06-04T00:14:42.497Z,15.40
2023-06-04T00:17:11.221Z,15.40
2023-06-04T00:19:41.549Z,15.30
2023-06-04T00:22:09.101Z,15.30
2023-06-04T00:24:39.632Z,15.20
2023-06-04T00:27:08.881Z,15.10
2023-06-04T00:29:36.027Z,15.10
2023-06-04T00:32:03.970Z,15.00
2023-06-04T00:34:31.260Z,14.90
2023-06-04T00:36:58.493Z,14.90
2023-06-04T00:39:25.331Z,14.80
2023-06-04T00:41:52.196Z,14.80
2023-06-04T00:44:19.270Z,14.70
2023-06-04T00:46:46.481Z,14.70
2023-06-04T00:49:13.926Z,14.60
2023-06-04T00:51:41.573Z,14.60
2023-06-04T00:54:12.720Z,14.50
2023-06-04T00:56:40.870Z,14.40
2023-06-04T00:59:09.947Z,14.40
2023-06-04T01:01:58.449Z,14.30
2023-06-04T01:05:12.655Z,14.20
2023-06-04T01:07:41.864Z,14.20
2023-06-04T01:10:09.184Z,14.10
2023-06-04T01:12:36.190Z,14.10
2023-06-04T01:15:03.211Z,14.00
2023-06-04T01:17:42.962Z,13.90
2023-06-04T01:20:35.525Z,13.90
2023-06-04T01:23:43.631Z,13.80
2023-06-04T01:26:12.497Z,13.80
2023-06-04T01:28:40.310Z,13.70
2023-06-04T01:31:09.757Z,13.70
2023-06-04T01:33:37.341Z,13.60
2023-06-04T01:36:04.905Z,13.60
2023-06-04T01:38:31.852Z,13.50
2023-06-04T01:41:02.303Z,13.50
2023-06-04T01:43:30.029Z,13.40
2023-06-04T01:45:57.843Z,13.40
2023-06-04T01:48:24.771Z,13.40
2023-06-04T01:50:51.699Z,13.30
2023-06-04T01:53:18.794Z,13.30
2023-06-04T01:55:45.781Z,13.20
2023-06-04T01:58:12.655Z,13.20
2023-06-04T02:00:39.528Z,13.10
2023-06-04T02:03:06.993Z,13.10
2023-06-04T02:05:34.037Z,13.10
2023-06-04T02:08:03.113Z,13.00
2023-06-04T02:10:30.038Z,12.90
2023-06-04T02:13:06.076Z,12.90
2023-06-04T02:15:33.867Z,12.90
2023-06-04T02:18:18.621Z,12.80
2023-06-04T02:20:46.761Z,12.80
2023-06-04T02:23:16.163Z,12.70
2023-06-04T02:25:45.633Z,12.70
2023-06-04T02:28:13.292Z,12.60
2023-06-04T02:30:40.253Z,12.60
2023-06-04T02:33:07.452Z,12.50
2023-06-04T02:35:34.342Z,12.50
2023-06-04T02:38:01.581Z,12.50
2023-06-04T02:40:30.627Z,12.40
2023-06-04T02:42:57.774Z,12.40
2023-06-04T02:45:25.595Z,12.30
2023-06-04T02:47:52.523Z,12.30
2023-06-04T02:50:19.527Z,12.30
2023-06-04T02:52:46.425Z,12.30
2023-06-04T02:55:13.783Z,12.20
2023-06-04T02:57:45.879Z,12.20
2023-06-04T03:00:16.248Z,12.10
2023-06-04T03:02:45.933Z,12.10
2023-06-04T03:05:15.427Z,12.00
2023-06-04T03:07:45.860Z,12.00
2023-06-04T03:10:16.002Z,12.00
2023-06-04T03:12:43.107Z,11.90
2023-06-04T03:15:11.013Z,11.90
2023-06-04T03:17:38.473Z,11.90
2023-06-04T03:20:08.032Z,11.80
2023-06-04T03:22:37.094Z,11.80
2023-06-04T03:25:06.059Z,11.80
2023-06-04T03:27:34.428Z,11.70
2023-06-04T03:30:01.999Z,11.70
2023-06-04T03:32:36.863Z,11.70
2023-06-04T03:35:04.257Z,11.70
2023-06-04T03:37:33.806Z,11.60
2023-06-04T03:40:01.278Z,11.60
2023-06-04T03:42:28.637Z,11.60
2023-06-04T03:44:55.740Z,11.50
2023-06-04T03:47:22.747Z,11.50
2023-06-04T03:49:49.654Z,11.50
2023-06-04T03:52:17.309Z,11.40
2023-06-04T03:54:44.255Z,11.40
2023-06-04T03:57:11.481Z,11.40
2023-06-04T03:59:39.288Z,11.40
2023-06-04T04:02:07.002Z,11.40
2023-06-04T04:04:34.784Z,11.40
2023-06-04T04:07:01.998Z,11.30
2023-06-04T04:09:29.139Z,11.30
2023-06-04T04:11:56.366Z,11.30
2023-06-04T04:14:23.968Z,11.30
2023-06-04T04:16:51.158Z,11.30
2023-06-04T04:19:18.714Z,11.30
2023-06-04T04:21:49.229Z,11.30
2023-06-04T04:24:28.360Z,11.30
2023-06-04T04:26:59.931Z,11.30
2023-06-04T04:29:28.880Z,11.30
2023-06-04T04:31:57.399Z,11.30
2023-06-04T04:34:27.972Z,11.30
2023-06-04T04:36:55.751Z,11.40
2023-06-04T04:39:25.859Z,11.50
2023-06-04T04:41:56.377Z,11.60
2023-06-04T04:44:23.761Z,11.80
2023-06-04T04:46:50.937Z,12.00
2023-06-04T04:49:18.166Z,12.10
2023-06-04T04:51:45.228Z,12.30
2023-06-04T04:54:12.211Z,12.50
2023-06-04T04:56:39.869Z,12.70
2023-06-04T04:59:06.921Z,12.80
2023-06-04T05:01:33.894Z,12.90
2023-06-04T05:04:03.323Z,13.10
2023-06-04T05:06:31.446Z,13.20
2023-06-04T05:08:58.532Z,13.30
2023-06-04T05:11:25.442Z,13.50
2023-06-04T05:13:52.860Z,13.60
2023-06-04T05:16:22.016Z,13.70
2023-06-04T05:18:52.531Z,13.90
2023-06-04T05:21:22.518Z,14.00
2023-06-04T05:23:56.422Z,14.10
2023-06-04T05:26:29.109Z,14.20
2023-06-04T05:28:59.597Z,14.30
2023-06-04T05:31:29.703Z,14.50
2023-06-04T05:33:58.817Z,14.60
2023-06-04T05:36:30.061Z,14.70
2023-06-04T05:39:00.803Z,14.80
2023-06-04T05:41:36.981Z,15.00
2023-06-04T05:44:05.209Z,15.10
2023-06-04T05:46:32.519Z,15.20
2023-06-04T05:48:59.463Z,15.30
2023-06-04T05:51:26.873Z,15.40
2023-06-04T05:53:53.938Z,15.60
2023-06-04T05:56:22.616Z,15.70
2023-06-04T05:58:54.129Z,15.80
2023-06-04T06:01:23.436Z,16.00
2023-06-04T06:03:51.922Z,16.10
2023-06-04T06:06:21.910Z,16.30
2023-06-04T06:08:48.821Z,16.30
2023-06-04T06:11:16.537Z,16.50
2023-06-04T06:13:43.584Z,16.60
2023-06-04T06:16:11.751Z,16.80
2023-06-04T06:18:38.711Z,16.90
2023-06-04T06:21:05.742Z,17.10
2023-06-04T06:23:33.014Z,17.20
2023-06-04T06:26:02.761Z,17.30
2023-06-04T06:28:32.477Z,17.50
2023-06-04T06:30:59.920Z,17.60
2023-06-04T06:33:27.088Z,17.70
2023-06-04T06:35:54.231Z,17.90
2023-06-04T06:38:21.091Z,18.00
2023-06-04T06:40:47.993Z,18.20
2023-06-04T06:43:14.888Z,18.30
2023-06-04T06:45:41.726Z,18.50
2023-06-04T06:48:08.655Z,18.60
2023-06-04T06:50:36.815Z,18.70
2023-06-04T06:53:06.577Z,18.90
2023-06-04T06:55:33.423Z,19.00
2023-06-04T06:58:00.426Z,19.10
2023-06-04T07:00:29.033Z,19.30
2023-06-04T07:02:56.913Z,19.40
2023-06-04T07:05:23.942Z,19.60
2023-06-04T07:07:50.759Z,19.70
2023-06-04T07:10:17.680Z,19.90
2023-06-04T07:12:44.574Z,20.00
2023-06-04T07:15:11.490Z,20.20
2023-06-04T07:17:38.418Z,20.30
2023-06-04T07:20:07.862Z,20.40
2023-06-04T07:22:35.624Z,20.50
2023-06-04T07:25:02.712Z,20.70
2023-06-04T07:27:29.609Z,20.80
2023-06-04T07:29:56.560Z,21.00
2023-06-04T07:32:23.486Z,21.10
2023-06-04T07:34:50.569Z,21.20
2023-06-04T07:37:17.450Z,21.30
2023-06-04T07:39:44.367Z,21.50
2023-06-04T07:42:11.263Z,21.60
2023-06-04T07:44:39.397Z,21.70
2023-06-04T07:47:06.834Z,21.80
2023-06-04T07:49:33.923Z,21.90
2023-06-04T07:52:01.372Z,22.00
2023-06-04T07:54:28.305Z,22.20
2023-06-04T07:56:57.106Z,22.30
2023-06-04T07:59:24.596Z,22.40
2023-06-04T08:01:54.963Z,22.50
2023-06-04T08:04:21.918Z,22.60
2023-06-04T08:06:50.685Z,22.70
2023-06-04T08:09:17.580Z,22.80
2023-06-04T08:11:45.550Z,22.90
2023-06-04T08:14:14.007Z,23.00
2023-06-04T08:16:41.808Z,23.20
2023-06-04T08:19:09.093Z,23.30
2023-06-04T08:21:36.747Z,23.30
2023-06-04T08:24:04.371Z,23.40
2023-06-04T08:26:31.656Z,23.50
2023-06-04T08:28:58.712Z,23.60
2023-06-04T08:31:25.627Z,23.70
2023-06-04T08:33:52.611Z,23.80
2023-06-04T08:36:19.478Z,23.90
2023-06-04T08:38:50.882Z,24.00
2023-06-04T08:41:43.495Z,24.10
2023-06-04T08:44:11.623Z,24.20
2023-06-04T08:46:42.019Z,24.30
2023-06-04T08:49:09.906Z,24.50
2023-06-04T08:51:38.758Z,24.50
2023-06-04T08:54:10.139Z,24.60
2023-06-04T08:56:38.595Z,24.80
2023-06-04T08:59:10.117Z,24.90
2023-06-04T09:01:42.666Z,25.00
2023-06-04T09:04:12.771Z,25.10
2023-06-04T09:06:42.466Z,25.20
2023-06-04T09:09:13.157Z,25.30
2023-06-04T09:11:53.351Z,25.30
2023-06-04T09:14:21.256Z,25.40
2023-06-04T09:16:54.610Z,25.50
2023-06-04T09:19:22.099Z,25.60
2023-06-04T09:21:58.781Z,25.60
2023-06-04T09:24:53.716Z,25.70
2023-06-04T09:27:23.291Z,25.80
2023-06-04T09:29:55.589Z,25.90
2023-06-04T09:32:31.633Z,26.00
2023-06-04T09:35:18.225Z,26.00
2023-06-04T09:37:58.232Z,26.00
2023-06-04T09:40:39.346Z,26.10
2023-06-04T09:43:07.199Z,26.20
2023-06-04T09:45:38.756Z,26.30
2023-06-04T09:48:09.326Z,26.30
2023-06-04T09:50:39.806Z,26.40
2023-06-04T09:53:25.659Z,26.50
2023-06-04T09:56:01.872Z,26.60
2023-06-04T09:58:29.868Z,26.70
2023-06-04T10:00:59.335Z,26.70
2023-06-04T10:03:27.905Z,26.80
2023-06-04T10:06:01.543Z,26.80
2023-06-04T10:08:31.485Z,27.00
2023-06-04T10:11:04.070Z,27.00
2023-06-04T10:13:39.044Z,27.10
2023-06-04T10:16:09.626Z,27.20
2023-06-04T10:18:40.984Z,27.30
2023-06-04T10:21:10.284Z,27.30
2023-06-04T10:23:37.783Z,27.40
2023-06-04T10:26:04.736Z,27.50
2023-06-04T10:28:34.550Z,27.50
2023-06-04T10:31:02.034Z,27.60
2023-06-04T10:33:29.298Z,27.60
2023-06-04T10:35:58.976Z,27.60
2023-06-04T10:38:26.771Z,27.70
2023-06-04T10:40:53.718Z,27.70
2023-06-04T10:43:21.621Z,27.80
2023-06-04T10:45:48.512Z,27.80
2023-06-04T10:48:15.641Z,27.90
2023-06-04T10:50:53.519Z,27.90
2023-06-04T10:53:23.888Z,27.90
2023-06-04T10:55:51.396Z,28.00
2023-06-04T10:58:19.190Z,28.00
2023-06-04T11:00:48.368Z,28.10
2023-06-04T11:03:15.765Z,28.10
2023-06-04T11:05:45.991Z,28.20
2023-06-04T11:08:15.305Z,28.30
2023-06-04T11:10:45.337Z,28.30
2023-06-04T11:13:13.104Z,28.40
2023-06-04T11:15:44.893Z,28.40
2023-06-04T11:18:17.427Z,28.40
2023-06-04T11:20:51.131Z,28.40
2023-06-04T11:23:18.861Z,28.50
2023-06-04T11:25:46.551Z,28.50
2023-06-04T11:28:19.024Z,28.60
2023-06-04T11:31:07.427Z,28.60
2023-06-04T11:33:48.679Z,28.70
2023-06-04T11:36:30.661Z,28.80
2023-06-04T11:39:03.195Z,28.80
2023-06-04T11:41:36.541Z,28.90
2023-06-04T11:44:08.482Z,29.00
2023-06-04T11:46:42.758Z,29.00
2023-06-04T11:49:13.131Z,29.10
2023-06-04T11:51:45.956Z,29.10
2023-06-04T11:54:13.986Z,29.20
2023-06-04T11:56:43.861Z,29.30
2023-06-04T11:59:14.473Z,29.40
2023-06-04T12:01:43.790Z,29.40
2023-06-04T12:04:19.197Z,29.40
2023-06-04T12:07:05.657Z,29.40
2023-06-04T12:09:39.117Z,29.50
2023-06-04T12:12:08.515Z,29.60
2023-06-04T12:14:35.617Z,29.60
2023-06-04T12:17:10.151Z,29.60
2023-06-04T12:19:51.717Z,29.70
2023-06-04T12:22:19.247Z,29.80
2023-06-04T12:24:54.748Z,29.80
2023-06-04T12:27:24.871Z,29.80
2023-06-04T12:30:03.023Z,29.80
2023-06-04T12:32:30.451Z,29.90
2023-06-04T12:34:57.642Z,29.90
2023-06-04T12:37:26.803Z,29.90
2023-06-04T12:39:54.593Z,30.00
2023-06-04T12:42:22.169Z,30.00
2023-06-04T12:44:49.271Z,30.00
2023-06-04T12:47:18.058Z,30.10
2023-06-04T12:49:46.202Z,30.10
2023-06-04T12:52:15.034Z,30.10
2023-06-04T12:54:44.191Z,30.10
2023-06-04T12:57:11.314Z,30.10
2023-06-04T12:59:38.172Z,30.10
2023-06-04T13:02:05.250Z,30.10
2023-06-04T13:04:32.334Z,30.10
2023-06-04T13:07:00.575Z,30.10
2023-06-04T13:09:29.808Z,30.10
2023-06-04T13:11:57.199Z,30.10
2023-06-04T13:14:24.414Z,30.10
2023-06-04T13:16:52.485Z,30.10
2023-06-04T13:19:21.608Z,30.20
2023-06-04T13:21:48.546Z,30.20
2023-06-04T13:24:15.697Z,30.20
2023-06-04T13:26:43.157Z,30.20
2023-06-04T13:29:10.547Z,30.30
2023-06-04T13:31:40.761Z,30.30
2023-06-04T13:34:25.553Z,30.30
2023-06-04T13:36:56.248Z,30.30
2023-06-04T13:39:23.447Z,30.40
2023-06-04T13:41:50.507Z,30.40
2023-06-04T13:44:18.186Z,30.40
2023-06-04T13:46:45.090Z,30.40
2023-06-04T13:49:11.965Z,30.40
2023-06-04T13:51:38.816Z,30.40
2023-06-04T13:54:05.667Z,30.50
2023-06-04T13:56:32.554Z,30.50
2023-06-04T13:58:59.393Z,30.50
2023-06-04T14:01:26.345Z,30.60
2023-06-04T14:03:53.720Z,30.60
2023-06-04T14:06:21.083Z,30.70
2023-06-04T14:08:47.904Z,30.70
2023-06-04T14:11:14.796Z,30.70
2023-06-04T14:13:42.792Z,30.70
2023-06-04T14:16:09.725Z,30.70
2023-06-04T14:18:36.909Z,30.70
2023-06-04T14:21:04.817Z,30.70
2023-06-04T14:23:31.817Z,30.70
2023-06-04T14:25:58.671Z,30.70
2023-06-04T14:28:25.539Z,30.80
2023-06-04T14:30:52.777Z,30.80
2023-06-04T14:33:19.720Z,30.80
2023-06-04T14:35:47.964Z,30.80
2023-06-04T14:38:16.173Z,30.90
2023-06-04T14:40:44.724Z,30.90
2023-06-04T14:43:13.064Z,30.90
2023-06-04T14:45:40.903Z,30.90
2023-06-04T14:48:15.638Z,30.90
2023-06-04T14:50:44.648Z,30.90
2023-06-04T14:53:12.999Z,30.90
2023-06-04T14:55:40.537Z,30.90
2023-06-04T14:58:07.665Z,30.90
2023-06-04T15:00:34.629Z,30.90
2023-06-04T15:03:03.910Z,30.90
2023-06-04T15:05:34.370Z,30.90
2023-06-04T15:08:01.605Z,30.90
2023-06-04T15:10:30.707Z,30.80
2023-06-04T15:12:58.077Z,30.80
2023-06-04T15:15:25.026Z,30.90
2023-06-04T15:17:53.042Z,30.90
2023-06-04T15:20:20.062Z,30.90
2023-06-04T15:22:47.209Z,30.90
2023-06-04T15:25:14.409Z,30.90
2023-06-04T15:27:41.943Z,30.90
2023-06-04T15:30:09.483Z,30.90
2023-06-04T15:32:36.686Z,30.90
2023-06-04T15:35:05.384Z,30.80
2023-06-04T15:37:32.280Z,30.90
2023-06-04T15:40:00.740Z,30.80
2023-06-04T15:42:27.909Z,30.80
2023-06-04T15:44:55.168Z,30.80
2023-06-04T15:47:22.191Z,30.70
2023-06-04T15:49:49.105Z,30.70
2023-06-04T15:52:16.168Z,30.70
2023-06-04T15:54:46.590Z,30.60
2023-06-04T15:57:14.645Z,30.60
2023-06-04T15:59:42.714Z,30.60
2023-06-04T16:02:10.025Z,30.60
2023-06-04T16:04:37.005Z,30.60
2023-06-04T16:07:06.026Z,30.60
2023-06-04T16:09:33.236Z,30.50
2023-06-04T16:12:00.303Z,30.50
2023-06-04T16:14:27.206Z,30.50
2023-06-04T16:16:54.387Z,30.50
2023-06-04T16:19:21.416Z,30.50
2023-06-04T16:21:48.348Z,30.40
2023-06-04T16:24:17.305Z,30.40
2023-06-04T16:26:44.223Z,30.40
2023-06-04T16:29:11.055Z,30.30
2023-06-04T16:31:38.252Z,30.20
2023-06-04T16:34:05.120Z,30.20
2023-06-04T16:36:33.875Z,30.10
2023-06-04T16:39:01.139Z,30.00
2023-06-04T16:41:28.235Z,30.00
2023-06-04T16:43:55.102Z,30.00
2023-06-04T16:46:22.082Z,29.90
2023-06-04T16:48:49.110Z,29.90
2023-06-04T16:51:16.089Z,29.80
2023-06-04T16:53:43.407Z,29.70
2023-06-04T16:56:10.728Z,29.60
2023-06-04T16:58:40.964Z,29.50
2023-06-04T17:01:11.160Z,29.50
2023-06-04T17:03:38.562Z,29.40
2023-06-04T17:06:06.505Z,29.30
2023-06-04T17:08:33.896Z,29.20
2023-06-04T17:11:00.905Z,29.20
2023-06-04T17:13:27.760Z,29.10
2023-06-04T17:15:54.667Z,29.10
2023-06-04T17:18:21.650Z,29.00
2023-06-04T17:20:48.773Z,29.00
2023-06-04T17:23:27.131Z,28.90
2023-06-04T17:25:54.559Z,28.90
2023-06-04T17:28:21.559Z,28.90
2023-06-04T17:30:48.961Z,28.80
2023-06-04T17:33:16.126Z,28.80
2023-06-04T17:35:43.196Z,28.80
2023-06-04T17:38:10.292Z,28.80
2023-06-04T17:40:37.142Z,28.80
2023-06-04T17:43:03.978Z,28.70
2023-06-04T17:45:30.863Z,28.60
2023-06-04T17:47:57.970Z,28.60
2023-06-04T17:50:25.862Z,28.50
2023-06-04T17:52:52.923Z,28.50
2023-06-04T17:55:19.891Z,28.40
2023-06-04T17:57:46.874Z,28.30
2023-06-04T18:00:15.521Z,28.30
2023-06-04T18:02:42.458Z,28.20
2023-06-04T18:05:10.193Z,28.10
2023-06-04T18:07:37.669Z,28.10
2023-06-04T18:10:06.262Z,28.00
2023-06-04T18:12:36.507Z,27.90
2023-06-04T18:15:05.208Z,27.80
2023-06-04T18:17:32.688Z,27.80
2023-06-04T18:19:59.625Z,27.70
2023-06-04T18:22:26.596Z,27.60
2023-06-04T18:24:54.539Z,27.50
2023-06-04T18:27:22.272Z,27.40
2023-06-04T18:29:50.158Z,27.40
2023-06-04T18:32:18.477Z,27.30
2023-06-04T18:34:46.354Z,27.20
2023-06-04T18:37:13.378Z,27.10
2023-06-04T18:39:41.342Z,27.00
2023-06-04T18:42:21.612Z,26.90
2023-06-04T18:44:57.883Z,26.80
2023-06-04T18:47:24.894Z,26.70
2023-06-04T18:49:52.081Z,26.60
2023-06-04T18:52:19.078Z,26.50
2023-06-04T18:54:45.958Z,26.40
2023-06-04T18:57:15.846Z,26.30
2023-06-04T18:59:42.734Z,26.20
2023-06-04T19:02:10.127Z,26.10
2023-06-04T19:04:37.091Z,26.00
2023-06-04T19:07:04.374Z,26.00
2023-06-04T19:09:31.372Z,25.90
2023-06-04T19:11:58.254Z,25.80
2023-06-04T19:14:25.079Z,25.70
2023-06-04T19:16:52.219Z,25.60
2023-06-04T19:19:21.174Z,25.50
2023-06-04T19:21:53.049Z,25.40
2023-06-04T19:24:23.698Z,25.30
2023-06-04T19:26:51.834Z,25.20
2023-06-04T19:29:19.368Z,25.10
2023-06-04T19:31:47.106Z,25.00
2023-06-04T19:34:14.019Z,24.90
2023-06-04T19:36:40.836Z,24.90
2023-06-04T19:39:08.187Z,24.80
2023-06-04T19:41:35.327Z,24.70
2023-06-04T19:44:02.194Z,24.60
2023-06-04T19:46:29.119Z,24.50
2023-06-04T19:48:57.652Z,24.50
2023-06-04T19:51:27.819Z,24.40
2023-06-04T19:53:56.947Z,24.30
2023-06-04T19:56:24.025Z,24.20
2023-06-04T19:58:50.927Z,24.20
2023-06-04T20:01:17.893Z,24.10
2023-06-04T20:03:45.048Z,24.00
2023-06-04T20:06:12.093Z,23.90
2023-06-04T20:08:38.970Z,23.80
2023-06-04T20:11:05.901Z,23.70
2023-06-04T20:13:32.799Z,23.60
2023-06-04T20:15:59.686Z,23.50
2023-06-04T20:18:29.761Z,23.30
2023-06-04T20:20:56.995Z,23.20
2023-06-04T20:23:23.918Z,23.10
2023-06-04T20:25:51.528Z,23.00
2023-06-04T20:28:18.615Z,22.90
2023-06-04T20:30:45.682Z,22.80
2023-06-04T20:33:12.806Z,22.70
2023-06-04T20:35:39.684Z,22.60
2023-06-04T20:38:07.003Z,22.50
2023-06-04T20:40:35.205Z,22.40
2023-06-04T20:43:02.287Z,22.30
2023-06-04T20:45:29.228Z,22.10
2023-06-04T20:47:56.690Z,22.00
2023-06-04T20:50:23.643Z,22.00
2023-06-04T20:52:50.549Z,21.90
2023-06-04T20:55:17.773Z,21.80
2023-06-04T20:57:44.785Z,21.70
2023-06-04T21:00:12.374Z,21.60
2023-06-04T21:02:39.577Z,21.50
2023-06-04T21:05:07.530Z,21.40
2023-06-04T21:07:34.392Z,21.40
2023-06-04T21:10:01.300Z,21.30
2023-06-04T21:12:28.165Z,21.20
2023-06-04T21:14:55.057Z,21.10
2023-06-04T21:17:22.038Z,21.00
2023-06-04T21:19:48.895Z,21.00
2023-06-04T21:22:15.888Z,20.90
2023-06-04T21:24:46.737Z,20.80
2023-06-04T21:27:13.945Z,20.70
2023-06-04T21:29:41.626Z,20.60
2023-06-04T21:32:08.625Z,20.60
2023-06-04T21:34:35.727Z,20.50
2023-06-04T21:37:02.625Z,20.40
2023-06-04T21:39:29.472Z,20.40
2023-06-04T21:41:56.403Z,20.30
2023-06-04T21:44:23.232Z,20.20
2023-06-04T21:46:50.714Z,20.10
2023-06-04T21:49:17.528Z,20.00
2023-06-04T21:51:44.390Z,20.00
2023-06-04T21:54:11.364Z,19.90
2023-06-04T21:56:38.229Z,19.80
2023-06-04T21:59:05.076Z,19.70
2023-06-04T22:01:31.991Z,19.70
2023-06-04T22:03:58.937Z,19.60
2023-06-04T22:06:25.911Z,19.50
2023-06-04T22:08:52.737Z,19.50
2023-06-04T22:11:19.576Z,19.40
2023-06-04T22:13:46.513Z,19.30
2023-06-04T22:16:13.393Z,19.30
2023-06-04T22:18:52.329Z,19.20
2023-06-04T22:21:20.775Z,19.10
2023-06-04T22:23:47.769Z,19.10
2023-06-04T22:26:28.345Z,19.00
2023-06-04T22:28:55.635Z,18.90
2023-06-04T22:31:22.491Z,18.90
2023-06-04T22:33:49.490Z,18.80
2023-06-04T22:36:17.013Z,18.70
2023-06-04T22:38:43.896Z,18.70
2023-06-04T22:41:10.911Z,18.60
2023-06-04T22:43:37.850Z,18.50
2023-06-04T22:46:05.222Z,18.50
2023-06-04T22:48:32.069Z,18.40
2023-06-04T22:50:59.013Z,18.30
2023-06-04T22:53:26.688Z,18.30
2023-06-04T22:55:53.592Z,18.20
2023-06-04T22:58:20.545Z,18.20
2023-06-04T23:00:50.245Z,18.10
2023-06-04T23:03:17.685Z,18.00
2023-06-04T23:05:44.984Z,18.00
2023-06-04T23:08:12.719Z,17.90
2023-06-04T23:10:39.560Z,17.90
2023-06-04T23:13:06.544Z,17.80
2023-06-04T23:15:33.908Z,17.80
2023-06-04T23:18:00.871Z,17.70
2023-06-04T23:20:27.781Z,17.60
2023-06-04T23:22:54.678Z,17.60
2023-06-04T23:25:21.659Z,17.50
2023-06-04T23:27:48.531Z,17.50
2023-06-04T23:30:16.278Z,17.40
2023-06-04T23:32:43.150Z,17.30
2023-06-04T23:35:10.345Z,17.30
2023-06-04T23:37:37.180Z,17.20
2023-06-04T23:40:07.114Z,17.20
2023-06-04T23:42:34.803Z,17.10
2023-06-04T23:45:01.968Z,17.00
2023-06-04T23:47:28.991Z,17.00
2023-06-04T23:49:56.016Z,16.90
2023-06-04T23:52:22.819Z,16.90
2023-06-04T23:54:49.658Z,16.80
2023-06-04T23:57:16.661Z,16.80
2023-06-04T23:59:43.505Z,16.70
